Statham, Georgia
Current Conditions -  °F | °C
As of 10:35 PM on Saturday 25 Oct 2014 (Local Time) from KWDR Reporting Station
Clear Clear  
Wind Chill: 66°   Ceiling: Unl
Heat Index: 66°   Visibility: 10mi
Dew Point: 54°   Wind: 9mph
Humidity: 65%   Direction: 320°NW
Pressure: 30.05"   Gusts: NA
Location:  33.97°N, 83.6°W
Report Text: KWDR 260235Z AUTO 32008KT 10SM CLR 19/12 A3005 RMK AO2 T01910124 PWINO
Loading
Personal Weather Stations






























Interactive Weather Map
Tropical Storm Tracking
New forecast layout! Learn more

10-Day Weather Forecast

Advertisements
Track Severe Weather on mobile